• Join FlightAware (Why Join?)
  • Login
  • US Flag 
09:02PM EST


 

Airport Tracker/Info


-or-


 

Live Flight TrackerFlight Track Log ✈ LIA553 ✈ 08-May-2013 ✈ TIST / STT - TQPF / AXA

Flight Track Log - Related Links

Times and Time Zones

All times are in EDT time to prevent confusion due to time zone crossing. See the LIA553 flight status page for this flight to view local times or setup timezone preferences in your user account.

Time Position Orientation Groundspeed Altitude Reporting Facility
EDT Latitude Longitude Course Direction KTS MPH feet Rate Location/Type
02:12PM 18.3000 -64.9833 90° East 140 161 1,400  Level San Juan Center
02:13PM 18.3000 -64.9333 90° East 140 161 2,900 1,450 Climbing San Juan Center
02:14PM 18.3000 -64.9000 90° East 160 184 4,300 1,190 Climbing San Juan Center
02:15PM 18.3167 -64.8500 71° East 170 196 5,300 992 Climbing San Juan Center
02:16PM 18.3167 -64.7833 90° East 200 230 6,300 1,000 Climbing San Juan Center
02:17PM 18.3167 -64.7333 90° East 200 230 7,300 1,041 Climbing San Juan Center
02:18PM 18.3167 -64.6667 90° East 200 230 8,400 1,041 Climbing San Juan Center
02:19PM 18.3333 -64.6167 71° East 200 230 9,400 1,000 Climbing San Juan Center
02:20PM 18.3333 -64.5500 90° East 220 253 10,400 793 Climbing San Juan Center
02:22PM 18.3333 -64.4833 90° East 210 242 11,000 298 Climbing San Juan Center
02:23PM 18.3333 -64.4167 90° East 250 288 11,000  Level San Juan Center
02:24PM 18.3333 -64.3333 90° East 260 299 11,000  Level San Juan Center
02:25PM 18.3333 -64.2667 90° East 270 311 11,000  Level San Juan Center
02:26PM 18.3333 -64.1833 90° East 270 311 11,000  Level San Juan Center
02:27PM 18.3333 -64.1000 90° East 260 299 11,000  Level San Juan Center
02:28PM 18.3333 -64.0333 90° East 260 299 11,000  Level San Juan Center
02:29PM 18.3500 -63.9500 78° East 260 299 11,000  Level San Juan Center
02:30PM 18.3667 -63.8833 75° East 260 299 11,000 -199 Level San Juan Center
02:32PM 18.3833 -63.7333 83° East 260 299 10,400 -497 Descending San Juan Center
02:33PM 18.3833 -63.6500 90° East 260 299 9,500 -942 Descending San Juan Center
02:34PM 18.3667 -63.5833 105° East 270 311 8,500 -992 Descending San Juan Center
02:35PM 18.3333 -63.5000 113° Southeast 260 299 7,500 -1,000 Descending San Juan Center